sensor_id;sensor_type;location;lat;lon;timestamp;temperature;humidity
10660;DHT22;5378;53.206;13.316;2023-07-31T00:01:57;16.80;99.90
10660;DHT22;5378;53.206;13.316;2023-07-31T00:04:44;17.20;99.90
10660;DHT22;5378;53.206;13.316;2023-07-31T00:07:32;16.70;99.90
10660;DHT22;5378;53.206;13.316;2023-07-31T00:10:19;16.70;99.90
10660;DHT22;5378;53.206;13.316;2023-07-31T00:13:06;16.60;99.90
10660;DHT22;5378;53.206;13.316;2023-07-31T00:15:53;16.50;99.90
10660;DHT22;5378;53.206;13.316;2023-07-31T00:18:42;16.50;99.90
10660;DHT22;5378;53.206;13.316;2023-07-31T00:21:29;16.40;99.90
10660;DHT22;5378;53.206;13.316;2023-07-31T00:24:16;16.30;99.90
10660;DHT22;5378;53.206;13.316;2023-07-31T00:27:04;16.20;99.90
10660;DHT22;5378;53.206;13.316;2023-07-31T00:29:51;16.30;99.90
10660;DHT22;5378;53.206;13.316;2023-07-31T00:32:38;16.20;99.90
10660;DHT22;5378;53.206;13.316;2023-07-31T00:35:27;16.20;99.90
10660;DHT22;5378;53.206;13.316;2023-07-31T00:38:14;16.30;99.90
10660;DHT22;5378;53.206;13.316;2023-07-31T00:41:01;16.20;99.90
10660;DHT22;5378;53.206;13.316;2023-07-31T00:43:48;16.20;99.90
10660;DHT22;5378;53.206;13.316;2023-07-31T00:46:35;16.20;99.90
10660;DHT22;5378;53.206;13.316;2023-07-31T00:49:23;16.20;99.90
10660;DHT22;5378;53.206;13.316;2023-07-31T00:52:12;16.30;99.90
10660;DHT22;5378;53.206;13.316;2023-07-31T00:54:59;16.20;99.90
10660;DHT22;5378;53.206;13.316;2023-07-31T00:57:49;16.30;99.90
10660;DHT22;5378;53.206;13.316;2023-07-31T01:00:37;16.20;99.90
10660;DHT22;5378;53.206;13.316;2023-07-31T01:03:25;16.20;99.90
10660;DHT22;5378;53.206;13.316;2023-07-31T01:06:17;16.30;99.90
10660;DHT22;5378;53.206;13.316;2023-07-31T01:09:10;16.30;99.90
10660;DHT22;5378;53.206;13.316;2023-07-31T01:12:02;16.30;99.90
10660;DHT22;5378;53.206;13.316;2023-07-31T01:15:02;16.30;99.90
10660;DHT22;5378;53.206;13.316;2023-07-31T01:17:49;16.30;99.90
10660;DHT22;5378;53.206;13.316;2023-07-31T01:20:37;16.30;99.90
10660;DHT22;5378;53.206;13.316;2023-07-31T01:23:48;16.30;99.90
10660;DHT22;5378;53.206;13.316;2023-07-31T01:26:39;16.40;99.90
10660;DHT22;5378;53.206;13.316;2023-07-31T01:29:34;16.50;99.90
10660;DHT22;5378;53.206;13.316;2023-07-31T01:32:25;16.50;99.90
10660;DHT22;5378;53.206;13.316;2023-07-31T01:35:15;16.60;99.90
10660;DHT22;5378;53.206;13.316;2023-07-31T01:38:02;16.70;99.90
10660;DHT22;5378;53.206;13.316;2023-07-31T01:40:51;16.70;99.90
10660;DHT22;5378;53.206;13.316;2023-07-31T01:43:40;16.60;99.90
10660;DHT22;5378;53.206;13.316;2023-07-31T01:46:27;16.60;99.90
10660;DHT22;5378;53.206;13.316;2023-07-31T01:49:15;16.70;99.90
10660;DHT22;5378;53.206;13.316;2023-07-31T01:52:02;16.70;99.90
10660;DHT22;5378;53.206;13.316;2023-07-31T01:54:49;16.70;99.90
10660;DHT22;5378;53.206;13.316;2023-07-31T01:57:37;16.70;99.90
10660;DHT22;5378;53.206;13.316;2023-07-31T02:00:25;16.70;99.90
10660;DHT22;5378;53.206;13.316;2023-07-31T02:03:12;16.70;99.90
10660;DHT22;5378;53.206;13.316;2023-07-31T02:05:59;16.80;99.90
10660;DHT22;5378;53.206;13.316;2023-07-31T02:08:46;16.70;99.90
10660;DHT22;5378;53.206;13.316;2023-07-31T02:11:33;16.80;99.90
10660;DHT22;5378;53.206;13.316;2023-07-31T02:14:20;16.70;99.90
10660;DHT22;5378;53.206;13.316;2023-07-31T02:17:09;16.70;99.90
10660;DHT22;5378;53.206;13.316;2023-07-31T02:19:56;16.70;99.90
10660;DHT22;5378;53.206;13.316;2023-07-31T02:22:43;16.80;99.90
10660;DHT22;5378;53.206;13.316;2023-07-31T02:25:30;16.70;99.90
10660;DHT22;5378;53.206;13.316;2023-07-31T02:28:17;16.70;99.90
10660;DHT22;5378;53.206;13.316;2023-07-31T02:31:04;16.80;99.90
10660;DHT22;5378;53.206;13.316;2023-07-31T02:33:54;16.80;99.90
10660;DHT22;5378;53.206;13.316;2023-07-31T02:36:41;16.90;99.90
10660;DHT22;5378;53.206;13.316;2023-07-31T02:39:28;16.90;99.90
10660;DHT22;5378;53.206;13.316;2023-07-31T02:42:15;16.90;99.90
10660;DHT22;5378;53.206;13.316;2023-07-31T02:45:03;17.00;99.90
10660;DHT22;5378;53.206;13.316;2023-07-31T02:47:51;16.90;99.90
10660;DHT22;5378;53.206;13.316;2023-07-31T02:50:40;16.80;99.90
10660;DHT22;5378;53.206;13.316;2023-07-31T02:53:28;16.80;99.90
10660;DHT22;5378;53.206;13.316;2023-07-31T02:56:15;16.80;99.90
10660;DHT22;5378;53.206;13.316;2023-07-31T02:59:02;16.70;99.90
10660;DHT22;5378;53.206;13.316;2023-07-31T03:01:49;16.70;99.90
10660;DHT22;5378;53.206;13.316;2023-07-31T03:04:36;16.70;99.90
10660;DHT22;5378;53.206;13.316;2023-07-31T03:07:24;16.60;99.90
10660;DHT22;5378;53.206;13.316;2023-07-31T03:10:12;16.70;99.90
10660;DHT22;5378;53.206;13.316;2023-07-31T03:12:59;16.70;99.90
10660;DHT22;5378;53.206;13.316;2023-07-31T03:15:47;16.70;99.90
10660;DHT22;5378;53.206;13.316;2023-07-31T03:18:34;16.70;99.90
10660;DHT22;5378;53.206;13.316;2023-07-31T03:21:21;16.70;99.90
10660;DHT22;5378;53.206;13.316;2023-07-31T03:24:09;16.70;99.90
10660;DHT22;5378;53.206;13.316;2023-07-31T03:26:57;16.70;99.90
10660;DHT22;5378;53.206;13.316;2023-07-31T03:29:46;16.90;99.90
10660;DHT22;5378;53.206;13.316;2023-07-31T03:32:33;16.80;99.90
10660;DHT22;5378;53.206;13.316;2023-07-31T03:35:20;16.80;99.90
10660;DHT22;5378;53.206;13.316;2023-07-31T03:38:07;16.70;99.90
10660;DHT22;5378;53.206;13.316;2023-07-31T03:40:57;16.80;99.90
10660;DHT22;5378;53.206;13.316;2023-07-31T03:43:46;16.80;99.90
10660;DHT22;5378;53.206;13.316;2023-07-31T03:46:33;16.70;99.90
10660;DHT22;5378;53.206;13.316;2023-07-31T03:49:22;16.70;99.90
10660;DHT22;5378;53.206;13.316;2023-07-31T03:52:09;16.70;99.90
10660;DHT22;5378;53.206;13.316;2023-07-31T03:54:56;16.80;99.90
10660;DHT22;5378;53.206;13.316;2023-07-31T03:57:44;16.70;99.90
10660;DHT22;5378;53.206;13.316;2023-07-31T04:00:32;16.70;99.90
10660;DHT22;5378;53.206;13.316;2023-07-31T04:03:19;16.70;99.90
10660;DHT22;5378;53.206;13.316;2023-07-31T04:06:06;16.70;99.90
10660;DHT22;5378;53.206;13.316;2023-07-31T04:08:54;16.90;99.90
10660;DHT22;5378;53.206;13.316;2023-07-31T04:11:41;16.80;99.90
10660;DHT22;5378;53.206;13.316;2023-07-31T04:14:29;16.80;99.90
10660;DHT22;5378;53.206;13.316;2023-07-31T04:17:17;16.80;99.90
10660;DHT22;5378;53.206;13.316;2023-07-31T04:20:06;16.90;99.90
10660;DHT22;5378;53.206;13.316;2023-07-31T04:22:53;17.00;99.90
10660;DHT22;5378;53.206;13.316;2023-07-31T04:25:40;17.00;99.90
10660;DHT22;5378;53.206;13.316;2023-07-31T04:28:27;17.00;99.90
10660;DHT22;5378;53.206;13.316;2023-07-31T04:31:16;17.00;99.90
10660;DHT22;5378;53.206;13.316;2023-07-31T04:34:03;17.20;99.90
10660;DHT22;5378;53.206;13.316;2023-07-31T04:36:50;17.30;99.90
10660;DHT22;5378;53.206;13.316;2023-07-31T04:39:37;17.60;99.90
10660;DHT22;5378;53.206;13.316;2023-07-31T04:42:24;17.80;99.90
10660;DHT22;5378;53.206;13.316;2023-07-31T04:45:11;17.80;99.90
10660;DHT22;5378;53.206;13.316;2023-07-31T04:48:00;17.80;99.90
10660;DHT22;5378;53.206;13.316;2023-07-31T04:50:47;17.90;99.90
10660;DHT22;5378;53.206;13.316;2023-07-31T04:53:34;17.90;99.90
10660;DHT22;5378;53.206;13.316;2023-07-31T04:56:21;18.00;99.90
10660;DHT22;5378;53.206;13.316;2023-07-31T04:59:08;18.20;99.90
10660;DHT22;5378;53.206;13.316;2023-07-31T05:01:55;18.50;99.90
10660;DHT22;5378;53.206;13.316;2023-07-31T05:04:44;18.90;99.90
10660;DHT22;5378;53.206;13.316;2023-07-31T05:07:31;18.60;99.90
10660;DHT22;5378;53.206;13.316;2023-07-31T05:10:18;18.60;99.90
10660;DHT22;5378;53.206;13.316;2023-07-31T05:13:05;18.90;99.90
10660;DHT22;5378;53.206;13.316;2023-07-31T05:15:52;19.90;99.90
10660;DHT22;5378;53.206;13.316;2023-07-31T05:18:40;21.60;99.90
10660;DHT22;5378;53.206;13.316;2023-07-31T05:21:28;23.40;99.90
10660;DHT22;5378;53.206;13.316;2023-07-31T05:24:16;24.50;99.90
10660;DHT22;5378;53.206;13.316;2023-07-31T05:27:04;25.50;99.90
10660;DHT22;5378;53.206;13.316;2023-07-31T05:29:51;26.20;99.90
10660;DHT22;5378;53.206;13.316;2023-07-31T05:32:38;26.10;99.90
10660;DHT22;5378;53.206;13.316;2023-07-31T05:35:25;25.70;99.90
10660;DHT22;5378;53.206;13.316;2023-07-31T05:38:14;25.70;99.90
10660;DHT22;5378;53.206;13.316;2023-07-31T05:41:01;25.50;99.90
10660;DHT22;5378;53.206;13.316;2023-07-31T05:43:48;25.20;99.90
10660;DHT22;5378;53.206;13.316;2023-07-31T05:46:35;24.90;99.90
10660;DHT22;5378;53.206;13.316;2023-07-31T05:49:22;24.90;99.90
10660;DHT22;5378;53.206;13.316;2023-07-31T05:52:09;25.00;99.90
10660;DHT22;5378;53.206;13.316;2023-07-31T05:54:57;25.00;99.90
10660;DHT22;5378;53.206;13.316;2023-07-31T05:57:45;24.30;99.90
10660;DHT22;5378;53.206;13.316;2023-07-31T06:00:32;23.60;99.90
10660;DHT22;5378;53.206;13.316;2023-07-31T06:03:19;22.80;99.90
10660;DHT22;5378;53.206;13.316;2023-07-31T06:06:06;22.50;99.90
10660;DHT22;5378;53.206;13.316;2023-07-31T06:08:53;22.50;99.90
10660;DHT22;5378;53.206;13.316;2023-07-31T06:11:42;22.80;99.90
10660;DHT22;5378;53.206;13.316;2023-07-31T06:14:29;22.80;99.90
10660;DHT22;5378;53.206;13.316;2023-07-31T06:17:16;22.70;99.90
10660;DHT22;5378;53.206;13.316;2023-07-31T06:20:07;22.10;99.90
10660;DHT22;5378;53.206;13.316;2023-07-31T06:22:54;21.60;99.90
10660;DHT22;5378;53.206;13.316;2023-07-31T06:25:41;21.10;99.90
10660;DHT22;5378;53.206;13.316;2023-07-31T06:28:30;20.60;99.90
10660;DHT22;5378;53.206;13.316;2023-07-31T06:31:17;20.40;99.90
10660;DHT22;5378;53.206;13.316;2023-07-31T06:34:08;20.40;99.90
10660;DHT22;5378;53.206;13.316;2023-07-31T06:36:56;20.40;99.90
10660;DHT22;5378;53.206;13.316;2023-07-31T06:39:43;20.50;99.90
10660;DHT22;5378;53.206;13.316;2023-07-31T06:42:30;20.70;99.90
10660;DHT22;5378;53.206;13.316;2023-07-31T06:45:19;20.90;99.90
10660;DHT22;5378;53.206;13.316;2023-07-31T06:48:07;20.60;99.90
10660;DHT22;5378;53.206;13.316;2023-07-31T06:50:54;20.40;99.90
10660;DHT22;5378;53.206;13.316;2023-07-31T06:53:42;20.30;99.90
10660;DHT22;5378;53.206;13.316;2023-07-31T06:56:31;20.20;99.90
10660;DHT22;5378;53.206;13.316;2023-07-31T06:59:18;20.20;99.90
10660;DHT22;5378;53.206;13.316;2023-07-31T07:02:07;20.30;99.90
10660;DHT22;5378;53.206;13.316;2023-07-31T07:04:54;20.30;99.90
10660;DHT22;5378;53.206;13.316;2023-07-31T07:07:41;20.40;99.90
10660;DHT22;5378;53.206;13.316;2023-07-31T07:10:29;20.30;99.90
10660;DHT22;5378;53.206;13.316;2023-07-31T07:13:16;20.50;99.90
10660;DHT22;5378;53.206;13.316;2023-07-31T07:16:04;20.90;99.90
10660;DHT22;5378;53.206;13.316;2023-07-31T07:18:52;21.30;99.90
10660;DHT22;5378;53.206;13.316;2023-07-31T07:21:48;21.70;99.90
10660;DHT22;5378;53.206;13.316;2023-07-31T07:24:34;22.40;99.90
10660;DHT22;5378;53.206;13.316;2023-07-31T07:27:22;23.20;99.90
10660;DHT22;5378;53.206;13.316;2023-07-31T07:30:09;23.60;99.90
10660;DHT22;5378;53.206;13.316;2023-07-31T07:32:56;23.40;99.90
10660;DHT22;5378;53.206;13.316;2023-07-31T07:35:45;23.30;99.90
10660;DHT22;5378;53.206;13.316;2023-07-31T07:38:32;23.10;99.90
10660;DHT22;5378;53.206;13.316;2023-07-31T07:41:19;23.10;99.90
10660;DHT22;5378;53.206;13.316;2023-07-31T07:44:08;23.60;99.90
10660;DHT22;5378;53.206;13.316;2023-07-31T07:46:55;23.90;99.90
10660;DHT22;5378;53.206;13.316;2023-07-31T07:49:43;24.10;99.90
10660;DHT22;5378;53.206;13.316;2023-07-31T07:52:34;25.40;99.90
10660;DHT22;5378;53.206;13.316;2023-07-31T07:55:21;26.40;99.90
10660;DHT22;5378;53.206;13.316;2023-07-31T07:58:08;27.30;99.90
10660;DHT22;5378;53.206;13.316;2023-07-31T08:00:55;27.70;99.90
10660;DHT22;5378;53.206;13.316;2023-07-31T08:03:42;28.30;99.90
10660;DHT22;5378;53.206;13.316;2023-07-31T08:06:29;28.80;99.90
10660;DHT22;5378;53.206;13.316;2023-07-31T08:09:18;29.60;99.90
10660;DHT22;5378;53.206;13.316;2023-07-31T08:12:06;30.50;99.90
10660;DHT22;5378;53.206;13.316;2023-07-31T08:14:53;30.60;99.90
10660;DHT22;5378;53.206;13.316;2023-07-31T08:17:40;29.70;99.90
10660;DHT22;5378;53.206;13.316;2023-07-31T08:20:27;29.60;99.90
10660;DHT22;5378;53.206;13.316;2023-07-31T08:23:14;29.80;99.90
10660;DHT22;5378;53.206;13.316;2023-07-31T08:26:03;29.90;99.90
10660;DHT22;5378;53.206;13.316;2023-07-31T08:28:50;30.50;99.90
10660;DHT22;5378;53.206;13.316;2023-07-31T08:31:37;31.00;99.90
10660;DHT22;5378;53.206;13.316;2023-07-31T08:34:24;31.90;99.90
10660;DHT22;5378;53.206;13.316;2023-07-31T08:37:11;32.80;99.80
10660;DHT22;5378;53.206;13.316;2023-07-31T08:39:59;33.00;96.40
10660;DHT22;5378;53.206;13.316;2023-07-31T08:42:49;32.30;96.70
10660;DHT22;5378;53.206;13.316;2023-07-31T08:45:37;30.60;97.50
10660;DHT22;5378;53.206;13.316;2023-07-31T08:48:25;30.30;99.90
10660;DHT22;5378;53.206;13.316;2023-07-31T08:51:14;30.90;98.70
10660;DHT22;5378;53.206;13.316;2023-07-31T08:54:01;31.00;97.80
10660;DHT22;5378;53.206;13.316;2023-07-31T08:56:50;30.30;98.80
10660;DHT22;5378;53.206;13.316;2023-07-31T08:59:40;29.00;99.30
10660;DHT22;5378;53.206;13.316;2023-07-31T09:02:34;27.80;99.90
10660;DHT22;5378;53.206;13.316;2023-07-31T09:05:21;26.90;99.90
10660;DHT22;5378;53.206;13.316;2023-07-31T09:08:10;26.40;99.90
10660;DHT22;5378;53.206;13.316;2023-07-31T09:10:59;26.10;99.90
10660;DHT22;5378;53.206;13.316;2023-07-31T09:13:47;26.00;99.90
10660;DHT22;5378;53.206;13.316;2023-07-31T09:16:51;26.00;99.90
10660;DHT22;5378;53.206;13.316;2023-07-31T09:19:39;26.10;99.90
10660;DHT22;5378;53.206;13.316;2023-07-31T09:22:31;25.80;99.90
10660;DHT22;5378;53.206;13.316;2023-07-31T09:25:21;25.40;99.90
10660;DHT22;5378;53.206;13.316;2023-07-31T09:28:10;25.10;99.90
10660;DHT22;5378;53.206;13.316;2023-07-31T09:30:57;25.10;99.90
10660;DHT22;5378;53.206;13.316;2023-07-31T09:33:55;25.50;99.90
10660;DHT22;5378;53.206;13.316;2023-07-31T09:36:44;25.10;99.90
10660;DHT22;5378;53.206;13.316;2023-07-31T09:39:31;25.20;99.90
10660;DHT22;5378;53.206;13.316;2023-07-31T09:42:24;25.00;99.90
10660;DHT22;5378;53.206;13.316;2023-07-31T09:45:13;25.40;99.90
10660;DHT22;5378;53.206;13.316;2023-07-31T09:48:07;25.50;99.90
10660;DHT22;5378;53.206;13.316;2023-07-31T09:50:56;25.50;99.90
10660;DHT22;5378;53.206;13.316;2023-07-31T09:53:50;25.20;99.90
10660;DHT22;5378;53.206;13.316;2023-07-31T09:56:42;25.00;99.90
10660;DHT22;5378;53.206;13.316;2023-07-31T09:59:29;24.60;99.90
10660;DHT22;5378;53.206;13.316;2023-07-31T10:02:21;24.30;99.90
10660;DHT22;5378;53.206;13.316;2023-07-31T10:05:08;23.90;99.90
10660;DHT22;5378;53.206;13.316;2023-07-31T10:07:57;23.70;99.90
10660;DHT22;5378;53.206;13.316;2023-07-31T10:10:45;23.40;99.90
10660;DHT22;5378;53.206;13.316;2023-07-31T10:13:33;23.40;99.90
10660;DHT22;5378;53.206;13.316;2023-07-31T10:16:21;23.30;99.90
10660;DHT22;5378;53.206;13.316;2023-07-31T10:19:10;23.00;99.90
10660;DHT22;5378;53.206;13.316;2023-07-31T10:21:58;22.80;99.90
10660;DHT22;5378;53.206;13.316;2023-07-31T10:24:47;22.70;99.90
10660;DHT22;5378;53.206;13.316;2023-07-31T10:27:36;22.70;99.90
10660;DHT22;5378;53.206;13.316;2023-07-31T10:30:27;22.90;99.90
10660;DHT22;5378;53.206;13.316;2023-07-31T10:33:16;23.00;99.90
10660;DHT22;5378;53.206;13.316;2023-07-31T10:36:17;22.70;99.90
10660;DHT22;5378;53.206;13.316;2023-07-31T10:39:34;22.20;99.90
10660;DHT22;5378;53.206;13.316;2023-07-31T10:42:27;21.90;99.90
10660;DHT22;5378;53.206;13.316;2023-07-31T10:45:24;21.60;99.90
10660;DHT22;5378;53.206;13.316;2023-07-31T10:48:14;21.60;99.90
10660;DHT22;5378;53.206;13.316;2023-07-31T10:51:07;21.60;99.90
10660;DHT22;5378;53.206;13.316;2023-07-31T10:54:10;21.60;99.90
10660;DHT22;5378;53.206;13.316;2023-07-31T10:56:57;21.50;99.90
10660;DHT22;5378;53.206;13.316;2023-07-31T10:59:46;21.40;99.90
10660;DHT22;5378;53.206;13.316;2023-07-31T11:02:33;21.20;99.90
10660;DHT22;5378;53.206;13.316;2023-07-31T11:05:20;21.40;99.90
10660;DHT22;5378;53.206;13.316;2023-07-31T11:08:11;21.70;99.90
10660;DHT22;5378;53.206;13.316;2023-07-31T11:11:06;22.00;99.90
10660;DHT22;5378;53.206;13.316;2023-07-31T11:13:54;21.80;99.90
10660;DHT22;5378;53.206;13.316;2023-07-31T11:16:43;21.60;99.90
10660;DHT22;5378;53.206;13.316;2023-07-31T11:19:30;21.20;99.90
10660;DHT22;5378;53.206;13.316;2023-07-31T11:22:17;21.20;99.90
10660;DHT22;5378;53.206;13.316;2023-07-31T11:25:05;21.20;99.90
10660;DHT22;5378;53.206;13.316;2023-07-31T11:27:53;21.20;99.90
10660;DHT22;5378;53.206;13.316;2023-07-31T11:30:43;21.30;99.90
10660;DHT22;5378;53.206;13.316;2023-07-31T11:33:31;21.20;99.90
10660;DHT22;5378;53.206;13.316;2023-07-31T11:36:20;21.10;99.90
10660;DHT22;5378;53.206;13.316;2023-07-31T11:39:08;21.10;99.90
10660;DHT22;5378;53.206;13.316;2023-07-31T11:41:58;20.90;99.90
10660;DHT22;5378;53.206;13.316;2023-07-31T11:44:45;20.60;99.90
10660;DHT22;5378;53.206;13.316;2023-07-31T11:47:34;20.70;99.90
10660;DHT22;5378;53.206;13.316;2023-07-31T11:50:24;20.70;99.90
10660;DHT22;5378;53.206;13.316;2023-07-31T11:53:13;20.60;99.90
10660;DHT22;5378;53.206;13.316;2023-07-31T11:56:02;20.90;99.90
10660;DHT22;5378;53.206;13.316;2023-07-31T11:58:53;21.20;99.90
10660;DHT22;5378;53.206;13.316;2023-07-31T12:01:41;21.40;99.90
10660;DHT22;5378;53.206;13.316;2023-07-31T12:04:29;21.30;99.90
10660;DHT22;5378;53.206;13.316;2023-07-31T12:07:18;21.20;99.90
10660;DHT22;5378;53.206;13.316;2023-07-31T12:10:05;21.20;99.90
10660;DHT22;5378;53.206;13.316;2023-07-31T12:12:58;21.30;99.90
10660;DHT22;5378;53.206;13.316;2023-07-31T12:15:46;21.30;99.90
10660;DHT22;5378;53.206;13.316;2023-07-31T12:18:34;21.30;99.90
10660;DHT22;5378;53.206;13.316;2023-07-31T12:21:21;21.20;99.90
10660;DHT22;5378;53.206;13.316;2023-07-31T12:24:10;21.30;99.90
10660;DHT22;5378;53.206;13.316;2023-07-31T12:26:57;21.50;99.90
10660;DHT22;5378;53.206;13.316;2023-07-31T12:29:44;21.90;99.90
10660;DHT22;5378;53.206;13.316;2023-07-31T12:32:31;22.10;99.90
10660;DHT22;5378;53.206;13.316;2023-07-31T12:35:19;22.30;99.90
10660;DHT22;5378;53.206;13.316;2023-07-31T12:38:06;22.60;99.90
10660;DHT22;5378;53.206;13.316;2023-07-31T12:40:54;22.80;99.90
10660;DHT22;5378;53.206;13.316;2023-07-31T12:43:43;23.20;99.90
10660;DHT22;5378;53.206;13.316;2023-07-31T12:46:30;23.40;99.90
10660;DHT22;5378;53.206;13.316;2023-07-31T12:49:18;23.30;99.90
10660;DHT22;5378;53.206;13.316;2023-07-31T12:52:05;23.30;99.90
10660;DHT22;5378;53.206;13.316;2023-07-31T12:54:52;23.20;99.90
10660;DHT22;5378;53.206;13.316;2023-07-31T12:57:41;23.10;99.90
10660;DHT22;5378;53.206;13.316;2023-07-31T13:00:29;22.90;99.90
10660;DHT22;5378;53.206;13.316;2023-07-31T13:03:16;22.40;99.90
10660;DHT22;5378;53.206;13.316;2023-07-31T13:06:03;22.10;99.90
10660;DHT22;5378;53.206;13.316;2023-07-31T13:08:51;22.00;99.90
10660;DHT22;5378;53.206;13.316;2023-07-31T13:11:38;22.00;99.90
10660;DHT22;5378;53.206;13.316;2023-07-31T13:14:27;21.90;99.90
10660;DHT22;5378;53.206;13.316;2023-07-31T13:17:14;22.20;99.90
10660;DHT22;5378;53.206;13.316;2023-07-31T13:20:02;22.60;99.90
10660;DHT22;5378;53.206;13.316;2023-07-31T13:22:50;23.00;99.90
10660;DHT22;5378;53.206;13.316;2023-07-31T13:25:37;23.10;99.90
10660;DHT22;5378;53.206;13.316;2023-07-31T13:28:25;23.00;99.90
10660;DHT22;5378;53.206;13.316;2023-07-31T13:31:13;22.90;99.90
10660;DHT22;5378;53.206;13.316;2023-07-31T13:34:00;22.50;99.90
10660;DHT22;5378;53.206;13.316;2023-07-31T13:36:47;22.20;99.90
10660;DHT22;5378;53.206;13.316;2023-07-31T13:39:34;22.10;99.90
10660;DHT22;5378;53.206;13.316;2023-07-31T13:42:22;22.10;99.90
10660;DHT22;5378;53.206;13.316;2023-07-31T13:45:10;22.20;99.90
10660;DHT22;5378;53.206;13.316;2023-07-31T13:47:58;22.50;99.90
10660;DHT22;5378;53.206;13.316;2023-07-31T13:50:45;22.70;99.90
10660;DHT22;5378;53.206;13.316;2023-07-31T13:53:32;22.60;99.90
10660;DHT22;5378;53.206;13.316;2023-07-31T13:56:20;22.40;99.90
10660;DHT22;5378;53.206;13.316;2023-07-31T13:59:07;22.00;99.90
10660;DHT22;5378;53.206;13.316;2023-07-31T14:01:54;21.60;99.90
10660;DHT22;5378;53.206;13.316;2023-07-31T14:04:42;21.60;99.90
10660;DHT22;5378;53.206;13.316;2023-07-31T14:07:29;21.90;99.90
10660;DHT22;5378;53.206;13.316;2023-07-31T14:10:16;22.20;99.90
10660;DHT22;5378;53.206;13.316;2023-07-31T14:13:03;22.30;99.90
10660;DHT22;5378;53.206;13.316;2023-07-31T14:15:51;22.20;99.90
10660;DHT22;5378;53.206;13.316;2023-07-31T14:18:39;22.10;99.90
10660;DHT22;5378;53.206;13.316;2023-07-31T14:21:27;22.10;99.90
10660;DHT22;5378;53.206;13.316;2023-07-31T14:24:14;22.20;99.90
10660;DHT22;5378;53.206;13.316;2023-07-31T14:27:01;22.30;99.90
10660;DHT22;5378;53.206;13.316;2023-07-31T14:29:48;22.20;99.90
10660;DHT22;5378;53.206;13.316;2023-07-31T14:32:35;22.30;99.90
10660;DHT22;5378;53.206;13.316;2023-07-31T14:35:23;22.30;99.90
10660;DHT22;5378;53.206;13.316;2023-07-31T14:38:11;22.20;99.90
10660;DHT22;5378;53.206;13.316;2023-07-31T14:40:58;22.10;99.90
10660;DHT22;5378;53.206;13.316;2023-07-31T14:43:45;21.80;99.90
10660;DHT22;5378;53.206;13.316;2023-07-31T14:46:32;21.70;99.90
10660;DHT22;5378;53.206;13.316;2023-07-31T14:49:19;21.80;99.90
10660;DHT22;5378;53.206;13.316;2023-07-31T14:52:07;21.90;99.90
10660;DHT22;5378;53.206;13.316;2023-07-31T14:54:56;21.80;99.90
10660;DHT22;5378;53.206;13.316;2023-07-31T14:57:43;21.70;99.90
10660;DHT22;5378;53.206;13.316;2023-07-31T15:00:30;21.60;99.90
10660;DHT22;5378;53.206;13.316;2023-07-31T15:03:17;21.50;99.90
10660;DHT22;5378;53.206;13.316;2023-07-31T15:06:04;21.20;99.90
10660;DHT22;5378;53.206;13.316;2023-07-31T15:08:53;21.20;99.90
10660;DHT22;5378;53.206;13.316;2023-07-31T15:11:42;21.30;99.90
10660;DHT22;5378;53.206;13.316;2023-07-31T15:14:29;21.30;99.90
10660;DHT22;5378;53.206;13.316;2023-07-31T15:17:17;21.30;99.90
10660;DHT22;5378;53.206;13.316;2023-07-31T15:20:05;21.20;99.90
10660;DHT22;5378;53.206;13.316;2023-07-31T15:22:52;21.20;99.90
10660;DHT22;5378;53.206;13.316;2023-07-31T15:25:40;21.40;99.90
10660;DHT22;5378;53.206;13.316;2023-07-31T15:28:28;21.50;99.90
10660;DHT22;5378;53.206;13.316;2023-07-31T15:31:15;21.70;99.90
10660;DHT22;5378;53.206;13.316;2023-07-31T15:34:02;21.80;99.90
10660;DHT22;5378;53.206;13.316;2023-07-31T15:36:50;21.90;99.90
10660;DHT22;5378;53.206;13.316;2023-07-31T15:39:37;22.00;99.90
10660;DHT22;5378;53.206;13.316;2023-07-31T15:42:24;22.10;99.90
10660;DHT22;5378;53.206;13.316;2023-07-31T15:45:13;22.10;99.90
10660;DHT22;5378;53.206;13.316;2023-07-31T15:48:00;22.00;99.90
10660;DHT22;5378;53.206;13.316;2023-07-31T15:50:47;21.90;99.90
10660;DHT22;5378;53.206;13.316;2023-07-31T15:53:34;21.90;99.90
10660;DHT22;5378;53.206;13.316;2023-07-31T15:56:21;21.80;99.90
10660;DHT22;5378;53.206;13.316;2023-07-31T15:59:08;21.50;99.90
10660;DHT22;5378;53.206;13.316;2023-07-31T16:01:57;21.30;99.90
10660;DHT22;5378;53.206;13.316;2023-07-31T16:04:45;21.10;99.90
10660;DHT22;5378;53.206;13.316;2023-07-31T16:07:32;21.00;99.90
10660;DHT22;5378;53.206;13.316;2023-07-31T16:10:19;20.90;99.90
10660;DHT22;5378;53.206;13.316;2023-07-31T16:13:06;20.70;99.90
10660;DHT22;5378;53.206;13.316;2023-07-31T16:15:53;20.60;99.90
10660;DHT22;5378;53.206;13.316;2023-07-31T16:18:42;20.50;99.90
10660;DHT22;5378;53.206;13.316;2023-07-31T16:21:29;20.50;99.90
10660;DHT22;5378;53.206;13.316;2023-07-31T16:24:16;20.50;99.90
10660;DHT22;5378;53.206;13.316;2023-07-31T16:27:06;20.50;99.90
10660;DHT22;5378;53.206;13.316;2023-07-31T16:29:53;20.50;99.90
10660;DHT22;5378;53.206;13.316;2023-07-31T16:32:41;20.50;99.90
10660;DHT22;5378;53.206;13.316;2023-07-31T16:35:29;20.40;99.90
10660;DHT22;5378;53.206;13.316;2023-07-31T16:38:17;20.40;99.90
10660;DHT22;5378;53.206;13.316;2023-07-31T16:41:05;20.40;99.90
10660;DHT22;5378;53.206;13.316;2023-07-31T16:43:52;20.20;99.90
10660;DHT22;5378;53.206;13.316;2023-07-31T16:46:39;20.10;99.90
10660;DHT22;5378;53.206;13.316;2023-07-31T16:49:26;20.10;99.90
10660;DHT22;5378;53.206;13.316;2023-07-31T16:52:15;20.00;99.90
10660;DHT22;5378;53.206;13.316;2023-07-31T16:55:02;20.00;99.90
10660;DHT22;5378;53.206;13.316;2023-07-31T16:57:49;19.90;99.90
10660;DHT22;5378;53.206;13.316;2023-07-31T17:00:36;19.90;99.90
10660;DHT22;5378;53.206;13.316;2023-07-31T17:03:24;19.90;99.90
10660;DHT22;5378;53.206;13.316;2023-07-31T17:06:11;19.90;99.90
10660;DHT22;5378;53.206;13.316;2023-07-31T17:09:00;19.80;99.90
10660;DHT22;5378;53.206;13.316;2023-07-31T17:11:47;19.90;99.90
10660;DHT22;5378;53.206;13.316;2023-07-31T17:14:34;19.80;99.90
10660;DHT22;5378;53.206;13.316;2023-07-31T17:17:21;19.70;99.90
10660;DHT22;5378;53.206;13.316;2023-07-31T17:20:09;19.70;99.90
10660;DHT22;5378;53.206;13.316;2023-07-31T17:22:57;19.60;99.90
10660;DHT22;5378;53.206;13.316;2023-07-31T17:25:45;19.50;99.90
10660;DHT22;5378;53.206;13.316;2023-07-31T17:28:32;19.50;99.90
10660;DHT22;5378;53.206;13.316;2023-07-31T17:31:20;19.50;99.90
10660;DHT22;5378;53.206;13.316;2023-07-31T17:34:07;19.50;99.90
10660;DHT22;5378;53.206;13.316;2023-07-31T17:36:54;19.50;99.90
10660;DHT22;5378;53.206;13.316;2023-07-31T17:39:41;19.50;99.90
10660;DHT22;5378;53.206;13.316;2023-07-31T17:42:30;19.50;99.90